sensor_id;sensor_type;location;lat;lon;timestamp;P1;durP1;ratioP1;P2;durP2;ratioP2
57395;SDS011;43222;52.912;6.940;2023-01-29T00:00:08;23.17;;;16.05;;
57395;SDS011;43222;52.912;6.940;2023-01-29T00:02:35;20.50;;;15.40;;
57395;SDS011;43222;52.912;6.940;2023-01-29T00:05:02;24.08;;;16.33;;
57395;SDS011;43222;52.912;6.940;2023-01-29T00:07:28;24.00;;;16.55;;
57395;SDS011;43222;52.912;6.940;2023-01-29T00:09:54;22.60;;;16.80;;
57395;SDS011;43222;52.912;6.940;2023-01-29T00:12:20;22.52;;;16.80;;
57395;SDS011;43222;52.912;6.940;2023-01-29T00:14:46;23.13;;;15.27;;
57395;SDS011;43222;52.912;6.940;2023-01-29T00:17:12;22.42;;;16.00;;
57395;SDS011;43222;52.912;6.940;2023-01-29T00:19:38;22.70;;;15.55;;
57395;SDS011;43222;52.912;6.940;2023-01-29T00:22:04;22.38;;;15.52;;
57395;SDS011;43222;52.912;6.940;2023-01-29T00:24:30;22.45;;;16.75;;
57395;SDS011;43222;52.912;6.940;2023-01-29T00:26:56;21.10;;;15.90;;
57395;SDS011;43222;52.912;6.940;2023-01-29T00:29:22;22.40;;;16.30;;
57395;SDS011;43222;52.912;6.940;2023-01-29T00:31:48;22.73;;;16.35;;
57395;SDS011;43222;52.912;6.940;2023-01-29T00:34:14;22.50;;;16.13;;
57395;SDS011;43222;52.912;6.940;2023-01-29T00:36:40;21.45;;;15.57;;
57395;SDS011;43222;52.912;6.940;2023-01-29T00:39:08;23.70;;;16.55;;
57395;SDS011;43222;52.912;6.940;2023-01-29T00:41:35;24.17;;;17.10;;
57395;SDS011;43222;52.912;6.940;2023-01-29T00:44:20;23.55;;;16.17;;
57395;SDS011;43222;52.912;6.940;2023-01-29T00:47:15;24.40;;;16.70;;
57395;SDS011;43222;52.912;6.940;2023-01-29T00:50:00;22.70;;;16.60;;
57395;SDS011;43222;52.912;6.940;2023-01-29T00:52:26;24.58;;;17.38;;
57395;SDS011;43222;52.912;6.940;2023-01-29T00:54:54;24.20;;;17.00;;
57395;SDS011;43222;52.912;6.940;2023-01-29T00:57:20;22.23;;;17.02;;
57395;SDS011;43222;52.912;6.940;2023-01-29T00:59:46;24.20;;;16.23;;
57395;SDS011;43222;52.912;6.940;2023-01-29T01:02:13;24.02;;;16.95;;
57395;SDS011;43222;52.912;6.940;2023-01-29T01:04:58;25.58;;;17.40;;
57395;SDS011;43222;52.912;6.940;2023-01-29T01:07:27;22.75;;;16.45;;
57395;SDS011;43222;52.912;6.940;2023-01-29T01:09:53;24.25;;;17.88;;
57395;SDS011;43222;52.912;6.940;2023-01-29T01:12:38;25.05;;;17.90;;
57395;SDS011;43222;52.912;6.940;2023-01-29T01:15:04;25.77;;;17.48;;
57395;SDS011;43222;52.912;6.940;2023-01-29T01:17:30;24.20;;;17.38;;
57395;SDS011;43222;52.912;6.940;2023-01-29T01:19:56;23.90;;;17.38;;
57395;SDS011;43222;52.912;6.940;2023-01-29T01:22:22;23.60;;;17.52;;
57395;SDS011;43222;52.912;6.940;2023-01-29T01:24:48;26.45;;;18.35;;
57395;SDS011;43222;52.912;6.940;2023-01-29T01:27:14;25.60;;;17.73;;
57395;SDS011;43222;52.912;6.940;2023-01-29T01:29:43;24.48;;;18.10;;
57395;SDS011;43222;52.912;6.940;2023-01-29T01:32:09;24.98;;;18.90;;
57395;SDS011;43222;52.912;6.940;2023-01-29T01:34:35;22.75;;;17.05;;
57395;SDS011;43222;52.912;6.940;2023-01-29T01:37:01;24.02;;;17.70;;
57395;SDS011;43222;52.912;6.940;2023-01-29T01:39:27;25.88;;;18.45;;
57395;SDS011;43222;52.912;6.940;2023-01-29T01:41:53;23.50;;;16.98;;
57395;SDS011;43222;52.912;6.940;2023-01-29T01:47:04;25.55;;;18.27;;
57395;SDS011;43222;52.912;6.940;2023-01-29T01:49:30;25.05;;;18.08;;
57395;SDS011;43222;52.912;6.940;2023-01-29T01:51:56;26.77;;;18.67;;
57395;SDS011;43222;52.912;6.940;2023-01-29T01:54:27;29.20;;;19.08;;
57395;SDS011;43222;52.912;6.940;2023-01-29T01:56:56;26.25;;;19.52;;
57395;SDS011;43222;52.912;6.940;2023-01-29T01:59:33;25.75;;;17.75;;
57395;SDS011;43222;52.912;6.940;2023-01-29T02:02:00;27.50;;;18.83;;
57395;SDS011;43222;52.912;6.940;2023-01-29T02:04:45;26.63;;;18.65;;
57395;SDS011;43222;52.912;6.940;2023-01-29T02:07:31;26.88;;;17.90;;
57395;SDS011;43222;52.912;6.940;2023-01-29T02:10:16;23.73;;;17.92;;
57395;SDS011;43222;52.912;6.940;2023-01-29T02:12:43;23.95;;;17.75;;
57395;SDS011;43222;52.912;6.940;2023-01-29T02:15:10;27.45;;;18.35;;
57395;SDS011;43222;52.912;6.940;2023-01-29T02:17:36;25.08;;;18.33;;
57395;SDS011;43222;52.912;6.940;2023-01-29T02:30:39;28.73;;;19.88;;
57395;SDS011;43222;52.912;6.940;2023-01-29T02:40:49;27.00;;;19.15;;
57395;SDS011;43222;52.912;6.940;2023-01-29T02:45:54;28.75;;;19.15;;
57395;SDS011;43222;52.912;6.940;2023-01-29T02:48:23;25.85;;;19.90;;
57395;SDS011;43222;52.912;6.940;2023-01-29T02:50:55;25.90;;;19.80;;
57395;SDS011;43222;52.912;6.940;2023-01-29T02:53:25;28.95;;;18.88;;
57395;SDS011;43222;52.912;6.940;2023-01-29T02:55:57;28.63;;;19.73;;
57395;SDS011;43222;52.912;6.940;2023-01-29T02:58:44;28.10;;;18.65;;
57395;SDS011;43222;52.912;6.940;2023-01-29T03:01:34;26.45;;;18.60;;
57395;SDS011;43222;52.912;6.940;2023-01-29T03:04:00;26.00;;;19.02;;
57395;SDS011;43222;52.912;6.940;2023-01-29T03:08:58;26.20;;;18.90;;
57395;SDS011;43222;52.912;6.940;2023-01-29T03:11:25;26.40;;;18.88;;
57395;SDS011;43222;52.912;6.940;2023-01-29T03:13:55;27.08;;;19.25;;
57395;SDS011;43222;52.912;6.940;2023-01-29T03:16:24;28.02;;;19.02;;
57395;SDS011;43222;52.912;6.940;2023-01-29T03:18:53;23.63;;;19.30;;
57395;SDS011;43222;52.912;6.940;2023-01-29T03:21:24;25.55;;;18.65;;
57395;SDS011;43222;52.912;6.940;2023-01-29T03:26:57;24.38;;;18.95;;
57395;SDS011;43222;52.912;6.940;2023-01-29T03:29:44;27.00;;;19.10;;
57395;SDS011;43222;52.912;6.940;2023-01-29T03:32:30;25.73;;;17.38;;
57395;SDS011;43222;52.912;6.940;2023-01-29T03:34:57;26.50;;;19.30;;
57395;SDS011;43222;52.912;6.940;2023-01-29T03:37:29;23.10;;;17.65;;
57395;SDS011;43222;52.912;6.940;2023-01-29T03:39:59;25.95;;;18.17;;
57395;SDS011;43222;52.912;6.940;2023-01-29T03:47:40;29.30;;;18.67;;
57395;SDS011;43222;52.912;6.940;2023-01-29T03:50:12;29.67;;;19.73;;
57395;SDS011;43222;52.912;6.940;2023-01-29T03:55:32;24.45;;;17.83;;
57395;SDS011;43222;52.912;6.940;2023-01-29T03:58:03;23.90;;;17.70;;
57395;SDS011;43222;52.912;6.940;2023-01-29T04:00:31;28.77;;;18.85;;
57395;SDS011;43222;52.912;6.940;2023-01-29T04:05:30;26.45;;;18.20;;
57395;SDS011;43222;52.912;6.940;2023-01-29T04:08:00;27.60;;;19.40;;
57395;SDS011;43222;52.912;6.940;2023-01-29T04:10:27;25.88;;;18.60;;
57395;SDS011;43222;52.912;6.940;2023-01-29T04:12:58;26.67;;;19.08;;
57395;SDS011;43222;52.912;6.940;2023-01-29T04:15:26;26.58;;;18.40;;
57395;SDS011;43222;52.912;6.940;2023-01-29T04:17:54;24.20;;;19.15;;
57395;SDS011;43222;52.912;6.940;2023-01-29T04:20:21;26.95;;;19.23;;
57395;SDS011;43222;52.912;6.940;2023-01-29T04:22:48;28.77;;;20.40;;
57395;SDS011;43222;52.912;6.940;2023-01-29T04:25:15;26.13;;;19.08;;
57395;SDS011;43222;52.912;6.940;2023-01-29T04:37:56;25.95;;;19.58;;
57395;SDS011;43222;52.912;6.940;2023-01-29T04:40:49;24.63;;;19.00;;
57395;SDS011;43222;52.912;6.940;2023-01-29T04:43:17;26.98;;;19.25;;
57395;SDS011;43222;52.912;6.940;2023-01-29T04:48:21;29.70;;;20.17;;
57395;SDS011;43222;52.912;6.940;2023-01-29T04:55:57;27.33;;;20.63;;
57395;SDS011;43222;52.912;6.940;2023-01-29T05:01:29;27.73;;;20.08;;
57395;SDS011;43222;52.912;6.940;2023-01-29T05:03:57;26.83;;;20.08;;
57395;SDS011;43222;52.912;6.940;2023-01-29T05:06:24;26.77;;;20.55;;
57395;SDS011;43222;52.912;6.940;2023-01-29T05:08:51;29.55;;;21.08;;
57395;SDS011;43222;52.912;6.940;2023-01-29T05:11:18;25.38;;;19.80;;
57395;SDS011;43222;52.912;6.940;2023-01-29T05:13:44;29.05;;;21.83;;
57395;SDS011;43222;52.912;6.940;2023-01-29T05:16:23;33.15;;;23.33;;
57395;SDS011;43222;52.912;6.940;2023-01-29T05:18:50;28.88;;;22.08;;
57395;SDS011;43222;52.912;6.940;2023-01-29T05:21:17;28.75;;;22.23;;
57395;SDS011;43222;52.912;6.940;2023-01-29T05:23:43;30.92;;;23.13;;
57395;SDS011;43222;52.912;6.940;2023-01-29T05:26:21;32.17;;;23.30;;
57395;SDS011;43222;52.912;6.940;2023-01-29T05:29:06;30.98;;;22.90;;
57395;SDS011;43222;52.912;6.940;2023-01-29T05:31:32;29.38;;;21.02;;
57395;SDS011;43222;52.912;6.940;2023-01-29T05:33:58;29.75;;;23.00;;
57395;SDS011;43222;52.912;6.940;2023-01-29T05:36:24;30.10;;;22.95;;
57395;SDS011;43222;52.912;6.940;2023-01-29T05:38:51;32.63;;;24.33;;
57395;SDS011;43222;52.912;6.940;2023-01-29T05:41:17;30.33;;;23.52;;
57395;SDS011;43222;52.912;6.940;2023-01-29T05:43:43;29.95;;;24.30;;
57395;SDS011;43222;52.912;6.940;2023-01-29T05:46:09;30.58;;;24.60;;
57395;SDS011;43222;52.912;6.940;2023-01-29T05:48:35;33.80;;;25.80;;
57395;SDS011;43222;52.912;6.940;2023-01-29T05:51:01;32.05;;;24.80;;
57395;SDS011;43222;52.912;6.940;2023-01-29T05:53:27;31.48;;;24.80;;
57395;SDS011;43222;52.912;6.940;2023-01-29T05:55:54;31.08;;;25.33;;
57395;SDS011;43222;52.912;6.940;2023-01-29T05:58:21;36.63;;;27.05;;
57395;SDS011;43222;52.912;6.940;2023-01-29T06:00:47;32.03;;;25.88;;
57395;SDS011;43222;52.912;6.940;2023-01-29T06:03:14;34.38;;;26.65;;
57395;SDS011;43222;52.912;6.940;2023-01-29T06:05:40;35.97;;;27.23;;
57395;SDS011;43222;52.912;6.940;2023-01-29T06:08:06;38.60;;;28.27;;
57395;SDS011;43222;52.912;6.940;2023-01-29T06:10:33;33.25;;;26.30;;
57395;SDS011;43222;52.912;6.940;2023-01-29T06:12:59;34.50;;;25.13;;
57395;SDS011;43222;52.912;6.940;2023-01-29T06:15:25;37.10;;;27.52;;
57395;SDS011;43222;52.912;6.940;2023-01-29T06:17:54;34.03;;;25.73;;
57395;SDS011;43222;52.912;6.940;2023-01-29T06:20:21;31.65;;;24.25;;
57395;SDS011;43222;52.912;6.940;2023-01-29T06:22:47;32.08;;;24.85;;
57395;SDS011;43222;52.912;6.940;2023-01-29T06:25:13;36.35;;;26.13;;
57395;SDS011;43222;52.912;6.940;2023-01-29T06:27:39;31.30;;;26.25;;
57395;SDS011;43222;52.912;6.940;2023-01-29T06:30:05;32.17;;;26.15;;
57395;SDS011;43222;52.912;6.940;2023-01-29T06:32:32;35.05;;;25.77;;
57395;SDS011;43222;52.912;6.940;2023-01-29T06:34:58;32.08;;;25.08;;
57395;SDS011;43222;52.912;6.940;2023-01-29T06:37:24;32.55;;;26.15;;
57395;SDS011;43222;52.912;6.940;2023-01-29T06:39:50;33.22;;;26.50;;
57395;SDS011;43222;52.912;6.940;2023-01-29T06:42:16;30.67;;;25.95;;
57395;SDS011;43222;52.912;6.940;2023-01-29T06:44:42;31.08;;;24.73;;
57395;SDS011;43222;52.912;6.940;2023-01-29T06:47:09;31.63;;;25.52;;
57395;SDS011;43222;52.912;6.940;2023-01-29T06:49:35;32.30;;;24.98;;
57395;SDS011;43222;52.912;6.940;2023-01-29T06:52:01;31.65;;;25.35;;
57395;SDS011;43222;52.912;6.940;2023-01-29T06:54:27;29.90;;;24.17;;
57395;SDS011;43222;52.912;6.940;2023-01-29T06:56:53;30.42;;;23.88;;
57395;SDS011;43222;52.912;6.940;2023-01-29T06:59:20;28.88;;;24.25;;
57395;SDS011;43222;52.912;6.940;2023-01-29T07:01:46;31.17;;;24.70;;
57395;SDS011;43222;52.912;6.940;2023-01-29T07:04:12;29.45;;;23.40;;
57395;SDS011;43222;52.912;6.940;2023-01-29T07:06:38;34.13;;;25.30;;
57395;SDS011;43222;52.912;6.940;2023-01-29T07:09:04;31.75;;;24.92;;
57395;SDS011;43222;52.912;6.940;2023-01-29T07:11:31;29.42;;;23.45;;
57395;SDS011;43222;52.912;6.940;2023-01-29T07:13:58;34.03;;;25.08;;
57395;SDS011;43222;52.912;6.940;2023-01-29T07:16:24;34.35;;;25.80;;
57395;SDS011;43222;52.912;6.940;2023-01-29T07:18:50;32.13;;;23.98;;
57395;SDS011;43222;52.912;6.940;2023-01-29T07:21:17;31.63;;;23.95;;
57395;SDS011;43222;52.912;6.940;2023-01-29T07:23:43;34.03;;;24.98;;
57395;SDS011;43222;52.912;6.940;2023-01-29T07:26:09;30.15;;;24.48;;
57395;SDS011;43222;52.912;6.940;2023-01-29T07:28:36;32.10;;;25.38;;
57395;SDS011;43222;52.912;6.940;2023-01-29T07:31:03;29.95;;;24.58;;
57395;SDS011;43222;52.912;6.940;2023-01-29T07:33:29;30.52;;;23.58;;
57395;SDS011;43222;52.912;6.940;2023-01-29T07:35:55;30.27;;;24.48;;
57395;SDS011;43222;52.912;6.940;2023-01-29T07:38:21;33.05;;;24.98;;
57395;SDS011;43222;52.912;6.940;2023-01-29T07:40:47;33.72;;;25.63;;
57395;SDS011;43222;52.912;6.940;2023-01-29T07:43:14;31.00;;;24.75;;
57395;SDS011;43222;52.912;6.940;2023-01-29T07:45:41;31.48;;;24.20;;
57395;SDS011;43222;52.912;6.940;2023-01-29T07:48:08;31.70;;;24.90;;
57395;SDS011;43222;52.912;6.940;2023-01-29T07:50:35;31.33;;;26.08;;
57395;SDS011;43222;52.912;6.940;2023-01-29T07:53:01;32.75;;;26.25;;
57395;SDS011;43222;52.912;6.940;2023-01-29T07:55:27;35.58;;;26.40;;
57395;SDS011;43222;52.912;6.940;2023-01-29T07:57:54;31.38;;;24.50;;
57395;SDS011;43222;52.912;6.940;2023-01-29T08:00:20;31.90;;;24.90;;
57395;SDS011;43222;52.912;6.940;2023-01-29T08:02:47;32.60;;;25.75;;
57395;SDS011;43222;52.912;6.940;2023-01-29T08:05:13;32.58;;;25.48;;
57395;SDS011;43222;52.912;6.940;2023-01-29T08:07:39;31.45;;;25.98;;
57395;SDS011;43222;52.912;6.940;2023-01-29T08:10:05;33.25;;;25.25;;
57395;SDS011;43222;52.912;6.940;2023-01-29T08:12:31;31.85;;;25.45;;
57395;SDS011;43222;52.912;6.940;2023-01-29T08:14:57;31.25;;;24.13;;
57395;SDS011;43222;52.912;6.940;2023-01-29T08:17:23;32.25;;;24.90;;
57395;SDS011;43222;52.912;6.940;2023-01-29T08:19:49;34.42;;;26.65;;
57395;SDS011;43222;52.912;6.940;2023-01-29T08:22:15;33.58;;;25.27;;
57395;SDS011;43222;52.912;6.940;2023-01-29T08:24:41;30.13;;;24.50;;
57395;SDS011;43222;52.912;6.940;2023-01-29T08:27:07;31.92;;;24.23;;
57395;SDS011;43222;52.912;6.940;2023-01-29T08:29:33;36.63;;;26.52;;
57395;SDS011;43222;52.912;6.940;2023-01-29T08:32:00;30.90;;;25.17;;
57395;SDS011;43222;52.912;6.940;2023-01-29T08:34:26;32.97;;;26.13;;
57395;SDS011;43222;52.912;6.940;2023-01-29T08:36:52;33.33;;;25.83;;
57395;SDS011;43222;52.912;6.940;2023-01-29T08:39:18;35.40;;;27.25;;
57395;SDS011;43222;52.912;6.940;2023-01-29T08:41:44;36.00;;;27.40;;
57395;SDS011;43222;52.912;6.940;2023-01-29T08:44:10;35.78;;;27.17;;
57395;SDS011;43222;52.912;6.940;2023-01-29T08:46:36;34.60;;;27.13;;
57395;SDS011;43222;52.912;6.940;2023-01-29T08:49:04;34.05;;;24.80;;
57395;SDS011;43222;52.912;6.940;2023-01-29T08:51:32;36.05;;;25.80;;
57395;SDS011;43222;52.912;6.940;2023-01-29T08:53:58;31.13;;;24.52;;
57395;SDS011;43222;52.912;6.940;2023-01-29T08:56:24;35.80;;;25.90;;
57395;SDS011;43222;52.912;6.940;2023-01-29T08:58:50;32.33;;;25.60;;
57395;SDS011;43222;52.912;6.940;2023-01-29T09:01:16;31.23;;;24.98;;
57395;SDS011;43222;52.912;6.940;2023-01-29T09:03:42;32.63;;;26.08;;
57395;SDS011;43222;52.912;6.940;2023-01-29T09:06:09;31.77;;;24.35;;
57395;SDS011;43222;52.912;6.940;2023-01-29T09:08:35;33.63;;;25.65;;
57395;SDS011;43222;52.912;6.940;2023-01-29T09:11:01;35.83;;;27.10;;
57395;SDS011;43222;52.912;6.940;2023-01-29T09:13:28;32.72;;;25.80;;
57395;SDS011;43222;52.912;6.940;2023-01-29T09:15:57;33.25;;;25.10;;
57395;SDS011;43222;52.912;6.940;2023-01-29T09:18:23;31.70;;;25.13;;
57395;SDS011;43222;52.912;6.940;2023-01-29T09:20:49;33.70;;;25.15;;
57395;SDS011;43222;52.912;6.940;2023-01-29T09:23:15;32.58;;;24.27;;
57395;SDS011;43222;52.912;6.940;2023-01-29T09:25:41;32.72;;;24.58;;
57395;SDS011;43222;52.912;6.940;2023-01-29T09:28:08;32.83;;;25.17;;
57395;SDS011;43222;52.912;6.940;2023-01-29T09:30:34;30.80;;;24.65;;
57395;SDS011;43222;52.912;6.940;2023-01-29T09:33:02;30.88;;;23.98;;
57395;SDS011;43222;52.912;6.940;2023-01-29T09:35:28;33.17;;;25.48;;
57395;SDS011;43222;52.912;6.940;2023-01-29T09:37:54;29.33;;;23.90;;
57395;SDS011;43222;52.912;6.940;2023-01-29T09:42:48;35.40;;;26.90;;
57395;SDS011;43222;52.912;6.940;2023-01-29T09:45:20;31.67;;;25.13;;
57395;SDS011;43222;52.912;6.940;2023-01-29T09:47:48;29.70;;;24.85;;
57395;SDS011;43222;52.912;6.940;2023-01-29T09:50:22;32.45;;;25.80;;
57395;SDS011;43222;52.912;6.940;2023-01-29T09:55:36;33.42;;;24.52;;
57395;SDS011;43222;52.912;6.940;2023-01-29T09:58:06;33.00;;;24.77;;
57395;SDS011;43222;52.912;6.940;2023-01-29T10:00:38;31.45;;;23.92;;
57395;SDS011;43222;52.912;6.940;2023-01-29T10:06:18;33.00;;;24.60;;
57395;SDS011;43222;52.912;6.940;2023-01-29T10:10:59;30.33;;;23.85;;
57395;SDS011;43222;52.912;6.940;2023-01-29T10:13:39;33.97;;;25.20;;
57395;SDS011;43222;52.912;6.940;2023-01-29T10:23:50;30.75;;;25.50;;
57395;SDS011;43222;52.912;6.940;2023-01-29T10:26:17;29.98;;;25.83;;
57395;SDS011;43222;52.912;6.940;2023-01-29T10:28:46;31.15;;;24.85;;
57395;SDS011;43222;52.912;6.940;2023-01-29T10:31:16;30.95;;;24.52;;
57395;SDS011;43222;52.912;6.940;2023-01-29T10:33:46;33.17;;;25.92;;
57395;SDS011;43222;52.912;6.940;2023-01-29T10:36:15;32.10;;;25.63;;
57395;SDS011;43222;52.912;6.940;2023-01-29T10:38:42;33.45;;;26.15;;
57395;SDS011;43222;52.912;6.940;2023-01-29T10:43:37;31.38;;;26.65;;
57395;SDS011;43222;52.912;6.940;2023-01-29T10:46:14;31.33;;;26.17;;
57395;SDS011;43222;52.912;6.940;2023-01-29T10:49:03;34.10;;;26.25;;
57395;SDS011;43222;52.912;6.940;2023-01-29T10:51:39;35.30;;;26.45;;
57395;SDS011;43222;52.912;6.940;2023-01-29T11:01:57;33.80;;;27.65;;
57395;SDS011;43222;52.912;6.940;2023-01-29T11:04:24;34.38;;;26.90;;
57395;SDS011;43222;52.912;6.940;2023-01-29T11:06:51;34.17;;;27.27;;
57395;SDS011;43222;52.912;6.940;2023-01-29T11:11:47;34.63;;;26.17;;
57395;SDS011;43222;52.912;6.940;2023-01-29T11:14:15;35.35;;;27.20;;
57395;SDS011;43222;52.912;6.940;2023-01-29T11:16:45;32.72;;;26.88;;
57395;SDS011;43222;52.912;6.940;2023-01-29T11:19:12;33.00;;;27.33;;
57395;SDS011;43222;52.912;6.940;2023-01-29T11:24:17;31.83;;;26.10;;
57395;SDS011;43222;52.912;6.940;2023-01-29T11:26:44;33.35;;;25.55;;
57395;SDS011;43222;52.912;6.940;2023-01-29T11:31:57;35.53;;;26.83;;
57395;SDS011;43222;52.912;6.940;2023-01-29T11:34:24;34.17;;;26.10;;
57395;SDS011;43222;52.912;6.940;2023-01-29T11:36:58;31.38;;;26.98;;
57395;SDS011;43222;52.912;6.940;2023-01-29T11:39:25;33.92;;;26.90;;
57395;SDS011;43222;52.912;6.940;2023-01-29T11:41:53;34.88;;;26.75;;
57395;SDS011;43222;52.912;6.940;2023-01-29T11:44:25;34.50;;;27.83;;
57395;SDS011;43222;52.912;6.940;2023-01-29T11:49:22;32.78;;;25.92;;
57395;SDS011;43222;52.912;6.940;2023-01-29T11:51:51;34.40;;;28.02;;
57395;SDS011;43222;52.912;6.940;2023-01-29T11:54:17;34.13;;;28.45;;
57395;SDS011;43222;52.912;6.940;2023-01-29T11:56:44;36.10;;;28.20;;
57395;SDS011;43222;52.912;6.940;2023-01-29T12:01:52;34.40;;;27.58;;
57395;SDS011;43222;52.912;6.940;2023-01-29T12:04:19;34.60;;;28.10;;
57395;SDS011;43222;52.912;6.940;2023-01-29T12:06:46;38.47;;;28.63;;
57395;SDS011;43222;52.912;6.940;2023-01-29T12:09:16;35.65;;;29.38;;
57395;SDS011;43222;52.912;6.940;2023-01-29T12:11:43;36.60;;;26.58;;
57395;SDS011;43222;52.912;6.940;2023-01-29T12:14:25;38.60;;;28.83;;
57395;SDS011;43222;52.912;6.940;2023-01-29T12:16:53;38.63;;;27.90;;
57395;SDS011;43222;52.912;6.940;2023-01-29T12:19:34;36.50;;;28.52;;
57395;SDS011;43222;52.912;6.940;2023-01-29T12:24:48;35.90;;;27.95;;
57395;SDS011;43222;52.912;6.940;2023-01-29T12:29:48;34.22;;;26.48;;
57395;SDS011;43222;52.912;6.940;2023-01-29T12:34:56;36.20;;;27.73;;
57395;SDS011;43222;52.912;6.940;2023-01-29T12:39:52;37.33;;;29.10;;
57395;SDS011;43222;52.912;6.940;2023-01-29T12:42:19;39.65;;;29.63;;
57395;SDS011;43222;52.912;6.940;2023-01-29T12:44:53;36.13;;;29.02;;
57395;SDS011;43222;52.912;6.940;2023-01-29T12:47:32;38.78;;;29.27;;
57395;SDS011;43222;52.912;6.940;2023-01-29T12:50:20;41.10;;;28.45;;
57395;SDS011;43222;52.912;6.940;2023-01-29T12:55:15;39.15;;;29.52;;
57395;SDS011;43222;52.912;6.940;2023-01-29T13:00:10;39.20;;;29.45;;
57395;SDS011;43222;52.912;6.940;2023-01-29T13:02:39;37.72;;;28.80;;
57395;SDS011;43222;52.912;6.940;2023-01-29T13:07:37;41.63;;;28.85;;
57395;SDS011;43222;52.912;6.940;2023-01-29T13:10:11;36.05;;;27.63;;
57395;SDS011;43222;52.912;6.940;2023-01-29T13:12:39;38.30;;;29.35;;
57395;SDS011;43222;52.912;6.940;2023-01-29T13:15:16;40.22;;;28.63;;
57395;SDS011;43222;52.912;6.940;2023-01-29T13:17:46;36.38;;;28.02;;
57395;SDS011;43222;52.912;6.940;2023-01-29T13:20:19;37.92;;;28.25;;
57395;SDS011;43222;52.912;6.940;2023-01-29T13:22:47;40.92;;;30.90;;
57395;SDS011;43222;52.912;6.940;2023-01-29T13:25:15;36.65;;;28.48;;
57395;SDS011;43222;52.912;6.940;2023-01-29T13:27:42;37.25;;;28.85;;
57395;SDS011;43222;52.912;6.940;2023-01-29T13:30:22;37.83;;;29.95;;
57395;SDS011;43222;52.912;6.940;2023-01-29T13:32:49;38.75;;;28.92;;
57395;SDS011;43222;52.912;6.940;2023-01-29T13:35:16;39.30;;;28.92;;
57395;SDS011;43222;52.912;6.940;2023-01-29T13:37:50;36.15;;;28.10;;
57395;SDS011;43222;52.912;6.940;2023-01-29T13:40:26;34.42;;;27.98;;
57395;SDS011;43222;52.912;6.940;2023-01-29T13:42:53;39.00;;;30.20;;
57395;SDS011;43222;52.912;6.940;2023-01-29T13:45:22;38.05;;;28.45;;
57395;SDS011;43222;52.912;6.940;2023-01-29T13:47:49;35.08;;;28.02;;
57395;SDS011;43222;52.912;6.940;2023-01-29T13:50:20;40.47;;;29.08;;
57395;SDS011;43222;52.912;6.940;2023-01-29T13:52:52;37.78;;;29.60;;
57395;SDS011;43222;52.912;6.940;2023-01-29T13:55:26;42.57;;;29.63;;
57395;SDS011;43222;52.912;6.940;2023-01-29T13:57:55;39.80;;;29.33;;
57395;SDS011;43222;52.912;6.940;2023-01-29T14:13:46;38.65;;;30.83;;
57395;SDS011;43222;52.912;6.940;2023-01-29T14:19:14;39.63;;;29.30;;
57395;SDS011;43222;52.912;6.940;2023-01-29T14:21:32;36.22;;;28.63;;
57395;SDS011;43222;52.912;6.940;2023-01-29T14:24:07;38.78;;;28.67;;
57395;SDS011;43222;52.912;6.940;2023-01-29T14:31:58;42.15;;;31.52;;
57395;SDS011;43222;52.912;6.940;2023-01-29T14:34:29;43.60;;;31.83;;
57395;SDS011;43222;52.912;6.940;2023-01-29T14:36:57;42.75;;;32.85;;
57395;SDS011;43222;52.912;6.940;2023-01-29T14:39:33;45.15;;;34.25;;
57395;SDS011;43222;52.912;6.940;2023-01-29T14:42:01;42.13;;;32.50;;
57395;SDS011;43222;52.912;6.940;2023-01-29T14:52:50;41.92;;;32.03;;
57395;SDS011;43222;52.912;6.940;2023-01-29T14:55:25;46.67;;;32.72;;
57395;SDS011;43222;52.912;6.940;2023-01-29T14:57:53;46.67;;;33.95;;
57395;SDS011;43222;52.912;6.940;2023-01-29T15:00:55;46.33;;;34.83;;
57395;SDS011;43222;52.912;6.940;2023-01-29T15:03:28;45.20;;;33.60;;
57395;SDS011;43222;52.912;6.940;2023-01-29T15:05:56;44.92;;;33.63;;
57395;SDS011;43222;52.912;6.940;2023-01-29T15:08:27;46.83;;;35.03;;
57395;SDS011;43222;52.912;6.940;2023-01-29T15:10:59;49.97;;;36.47;;
57395;SDS011;43222;52.912;6.940;2023-01-29T15:16:53;53.13;;;37.17;;
57395;SDS011;43222;52.912;6.940;2023-01-29T15:19:18;52.10;;;36.40;;
57395;SDS011;43222;52.912;6.940;2023-01-29T15:22:04;48.50;;;36.13;;
57395;SDS011;43222;52.912;6.940;2023-01-29T15:24:30;51.22;;;37.42;;
57395;SDS011;43222;52.912;6.940;2023-01-29T15:26:56;50.33;;;38.13;;
57395;SDS011;43222;52.912;6.940;2023-01-29T15:29:23;52.15;;;39.20;;
57395;SDS011;43222;52.912;6.940;2023-01-29T15:31:50;52.95;;;38.08;;
57395;SDS011;43222;52.912;6.940;2023-01-29T15:34:16;51.13;;;37.58;;
57395;SDS011;43222;52.912;6.940;2023-01-29T15:36:42;52.13;;;38.38;;
57395;SDS011;43222;52.912;6.940;2023-01-29T15:39:13;48.17;;;36.55;;
57395;SDS011;43222;52.912;6.940;2023-01-29T15:41:39;51.20;;;39.20;;
57395;SDS011;43222;52.912;6.940;2023-01-29T15:44:11;52.20;;;38.85;;
57395;SDS011;43222;52.912;6.940;2023-01-29T15:46:38;50.70;;;36.83;;
57395;SDS011;43222;52.912;6.940;2023-01-29T15:49:06;52.72;;;39.95;;
57395;SDS011;43222;52.912;6.940;2023-01-29T15:51:33;52.22;;;38.03;;
57395;SDS011;43222;52.912;6.940;2023-01-29T15:54:02;52.78;;;39.13;;
57395;SDS011;43222;52.912;6.940;2023-01-29T15:56:33;53.97;;;39.15;;
57395;SDS011;43222;52.912;6.940;2023-01-29T15:59:01;49.08;;;34.67;;
57395;SDS011;43222;52.912;6.940;2023-01-29T16:01:28;53.22;;;38.05;;
57395;SDS011;43222;52.912;6.940;2023-01-29T16:03:55;51.08;;;37.88;;
57395;SDS011;43222;52.912;6.940;2023-01-29T16:06:22;50.95;;;37.58;;
57395;SDS011;43222;52.912;6.940;2023-01-29T16:08:50;51.20;;;36.20;;
57395;SDS011;43222;52.912;6.940;2023-01-29T16:11:16;55.38;;;40.35;;
57395;SDS011;43222;52.912;6.940;2023-01-29T16:13:44;52.22;;;40.20;;
57395;SDS011;43222;52.912;6.940;2023-01-29T16:18:41;52.45;;;38.45;;
57395;SDS011;43222;52.912;6.940;2023-01-29T16:23:41;49.60;;;37.45;;
57395;SDS011;43222;52.912;6.940;2023-01-29T16:26:11;52.90;;;38.55;;
57395;SDS011;43222;52.912;6.940;2023-01-29T16:28:40;52.33;;;38.15;;
57395;SDS011;43222;52.912;6.940;2023-01-29T16:31:06;53.95;;;38.47;;
57395;SDS011;43222;52.912;6.940;2023-01-29T16:33:33;51.40;;;38.90;;
57395;SDS011;43222;52.912;6.940;2023-01-29T16:36:00;51.45;;;38.70;;
57395;SDS011;43222;52.912;6.940;2023-01-29T16:38:30;54.28;;;38.95;;
57395;SDS011;43222;52.912;6.940;2023-01-29T16:41:42;56.97;;;38.30;;
57395;SDS011;43222;52.912;6.940;2023-01-29T16:43:44;49.88;;;37.20;;
57395;SDS011;43222;52.912;6.940;2023-01-29T16:48:40;52.83;;;38.67;;
57395;SDS011;43222;52.912;6.940;2023-01-29T16:51:13;52.97;;;37.83;;
57395;SDS011;43222;52.912;6.940;2023-01-29T16:53:39;54.20;;;39.30;;
57395;SDS011;43222;52.912;6.940;2023-01-29T16:56:18;50.72;;;36.53;;
57395;SDS011;43222;52.912;6.940;2023-01-29T16:58:50;52.63;;;38.58;;
57395;SDS011;43222;52.912;6.940;2023-01-29T17:01:17;55.60;;;39.72;;
57395;SDS011;43222;52.912;6.940;2023-01-29T17:03:43;51.80;;;39.40;;
57395;SDS011;43222;52.912;6.940;2023-01-29T17:06:17;55.92;;;39.22;;
57395;SDS011;43222;52.912;6.940;2023-01-29T17:08:45;52.45;;;39.10;;
57395;SDS011;43222;52.912;6.940;2023-01-29T17:11:12;56.00;;;39.10;;